Kyokaimaru No.75 — JL6374 — position and weather

sailwx.info

Track history (hours):
 
Tides and Currents Weather Stations Pressure Air Temp Water Temp Dewpoint Dewpoint Depression Visibility Wind Speed Wind Dir Waves Ship Positions

Kyokaimaru No.75

Last reported at 2017-Dec-11 16:58 UTC. Time now 2017-Dec-13 05:11 UTC.
Position N 33°57' E 131°14'.

Length 68 m; draft 4.5 m.

Type: Tanker. MMSI: 431400692.

Date/timePositionNaut miles runAvg speedWind from/ knotsBaromVisibWave heightAir tempDewpointWater temp
2017-Dec-11 16:58N 33°57' E 131°14'0 0.0
2017-Dec-11 16:28N 33°57' E 131°14'0 0.0
2017-Dec-11 14:46N 33°57' E 131°14'0 0.0
2017-Dec-11 14:28N 33°57' E 131°14'0 0.0
2017-Dec-11 13:40N 33°57' E 131°14'0 0.0
2017-Dec-11 10:22N 33°57' E 131°14'0 0.0
2017-Dec-11 09:58N 33°57' E 131°14'0 0.0
2017-Dec-11 09:28N 33°57' E 131°14'0 0.0
2017-Dec-11 08:52N 33°57' E 131°14'0 0.0
2017-Dec-11 08:28N 33°57' E 131°14'0 0.0
2017-Dec-11 07:58N 33°57' E 131°14'0 0.0
2017-Dec-11 07:28N 33°57' E 131°14'0 0.0
2017-Dec-11 06:58N 33°57' E 131°14'0 0.0
2017-Dec-11 06:28N 33°57' E 131°14'0 0.0
2017-Dec-11 05:58N 33°57' E 131°14'0 0.0
2017-Dec-11 05:22N 33°57' E 131°14'0 0.0
2017-Dec-11 04:58N 33°57' E 131°14'0 0.0
2017-Dec-11 04:28N 33°57' E 131°14'0 0.0
2017-Dec-11 03:58N 33°57' E 131°14'0 0.0
2017-Dec-11 03:30N 33°57' E 131°14'0 0.0
2017-Dec-11 02:57N 33°57' E 131°14'0 0.0
2017-Dec-11 02:30N 33°57' E 131°14'0 0.0
2017-Dec-11 01:42N 33°57' E 131°14'0 0.0
2017-Dec-11 01:24N 33°57' E 131°14'0 0.0
2017-Dec-11 01:00N 33°57' E 131°14'0 0.0
2017-Dec-11 00:30N 33°57' E 131°14'0 0.0
2017-Dec-11 00:00N 33°57' E 131°14'0 0.0
2017-Dec-10 23:30N 33°57' E 131°14'0 0.0
2017-Dec-10 23:00N 33°57' E 131°14'1 2.5
2017-Dec-10 22:30N 33°56' E 131°14'1 2.0
2017-Dec-10 22:00N 33°55' E 131°13'0 0.1
2017-Dec-10 21:28N 33°55' E 131°13'0 0.1
2017-Dec-10 20:58N 33°55' E 131°13'0 0.1
2017-Dec-10 20:28N 33°55' E 131°13'0 0.0
2017-Dec-10 19:58N 33°55' E 131°13'0 0.0
2017-Dec-10 19:28N 33°55' E 131°13'0 0.1
2017-Dec-10 18:58N 33°55' E 131°13'0 0.0
2017-Dec-10 18:28N 33°55' E 131°13'0 0.1
2017-Dec-10 17:58N 33°55' E 131°13'0 0.0
2017-Dec-10 17:28N 33°55' E 131°13'0 0.0
2017-Dec-10 16:55N 33°55' E 131°13'0 0.0
2017-Dec-10 16:28N 33°55' E 131°13'0 0.0
2017-Dec-10 15:58N 33°55' E 131°13'0 0.0
2017-Dec-10 15:28N 33°55' E 131°13'0 0.0
2017-Dec-10 14:58N 33°55' E 131°13'0 0.0
2017-Dec-10 14:28N 33°55' E 131°13'0 0.0
2017-Dec-10 13:55N 33°55' E 131°13'0 0.0
2017-Dec-10 13:28N 33°55' E 131°13'0 0.0
2017-Dec-10 12:58N 33°55' E 131°13'0 0.0
2017-Dec-10 12:28N 33°55' E 131°13'0 0.0
2017-Dec-10 11:58N 33°55' E 131°13'0 0.0
2017-Dec-10 11:28N 33°55' E 131°13'0 0.0
2017-Dec-10 10:58N 33°55' E 131°13'0 0.0
2017-Dec-10 10:28N 33°55' E 131°13'0 0.0
2017-Dec-10 09:58N 33°55' E 131°13'0 0.0
2017-Dec-10 09:30N 33°55' E 131°13'2 4.8
2017-Dec-10 09:00N 33°53' E 131°14'510.2
2017-Dec-10 08:31N 33°54' E 131°20'611.6
2017-Dec-10 07:59N 33°56' E 131°27'611.8
2017-Dec-10 07:30N 33°58' E 131°33'611.9
2017-Dec-10 06:58N 34°01' E 131°40'510.3
2017-Dec-10 06:29N 34°03' E 131°46'1 1.1
2017-Dec-10 06:00N 34°03' E 131°46'0 0.0
2017-Dec-10 05:30N 34°03' E 131°46'0 0.0
2017-Dec-10 05:00N 34°03' E 131°46'0 0.0
2017-Dec-10 04:29N 34°03' E 131°46'0 0.0
2017-Dec-10 03:58N 34°03' E 131°46'0 0.0
2017-Dec-10 03:11N 34°03' E 131°46'0 0.0
2017-Dec-10 02:52N 34°03' E 131°46'0 0.1
2017-Dec-10 02:30N 34°03' E 131°46'1 0.4
2017-Dec-10 00:08N 34°03' E 131°45'0 2.5
2017-Dec-09 23:59N 34°03' E 131°45'4 7.0
2017-Dec-09 23:27N 34°02' E 131°40'0 0.0
2017-Dec-09 22:57N 34°02' E 131°40'0 0.0
2017-Dec-09 22:27N 34°02' E 131°40'0 0.0
2017-Dec-09 22:00N 34°02' E 131°40'0 0.0
2017-Dec-09 21:27N 34°02' E 131°40'0 0.0
2017-Dec-09 20:57N 34°02' E 131°40'0 0.1
2017-Dec-09 20:30N 34°02' E 131°41'0 0.1
2017-Dec-09 20:00N 34°02' E 131°40'0 0.0
2017-Dec-09 19:24N 34°02' E 131°40'0 0.0
2017-Dec-09 18:57N 34°02' E 131°40'0 0.0
2017-Dec-09 18:30N 34°02' E 131°40'0 0.0
2017-Dec-09 18:00N 34°02' E 131°40'0 0.0
2017-Dec-09 17:30N 34°02' E 131°40'0 0.0
2017-Dec-09 16:57N 34°02' E 131°40'0 0.0
2017-Dec-09 16:27N 34°02' E 131°40'0 0.0
2017-Dec-09 16:00N 34°02' E 131°40'0 0.0
2017-Dec-09 15:30N 34°02' E 131°40'0 0.0
2017-Dec-09 14:48N 34°02' E 131°40'0 0.0
2017-Dec-09 14:30N 34°02' E 131°40'0 0.0
2017-Dec-09 14:00N 34°02' E 131°40'0 0.0
2017-Dec-09 13:24N 34°02' E 131°40'0 0.0
2017-Dec-09 12:57N 34°02' E 131°40'0 0.0
2017-Dec-09 12:27N 34°02' E 131°40'0 0.0
2017-Dec-09 12:00N 34°02' E 131°40'0 0.0
2017-Dec-09 11:27N 34°02' E 131°40'0 0.1
2017-Dec-09 11:00N 34°02' E 131°41'0 0.0
2017-Dec-09 10:30N 34°02' E 131°41'0 0.0
2017-Dec-09 09:57N 34°02' E 131°41'0 0.0
2017-Dec-09 09:30N 34°02' E 131°41'0 0.0
2017-Dec-09 08:57N 34°02' E 131°41'0 0.0
2017-Dec-09 08:27N 34°02' E 131°41'0 0.0
2017-Dec-09 07:21N 34°02' E 131°41'0 0.0
2017-Dec-09 06:57N 34°02' E 131°41'0 0.0
2017-Dec-09 06:27N 34°02' E 131°41'0 0.0
2017-Dec-09 06:00N 34°02' E 131°41'0 0.0
2017-Dec-09 05:30N 34°02' E 131°41'0 0.0
2017-Dec-09 04:57N 34°02' E 131°41'0 0.0
2017-Dec-09 04:27N 34°02' E 131°41'0 0.0
2017-Dec-09 03:45N 34°02' E 131°41'0 0.0
2017-Dec-09 03:27N 34°02' E 131°41'0 0.0
2017-Dec-09 02:57N 34°02' E 131°41'0 0.0
2017-Dec-09 02:26N 34°02' E 131°41'4 9.4
2017-Dec-09 02:00N 33°60' E 131°37'510.7
2017-Dec-09 01:30N 33°57' E 131°31'510.8
2017-Dec-09 01:00N 33°55' E 131°25'510.6
2017-Dec-09 00:30N 33°53' E 131°19'5 9.1
2017-Dec-09 00:00N 33°54' E 131°14'3 6.9
2017-Dec-08 23:30N 33°57' E 131°14'0 0.0
2017-Dec-08 22:39N 33°57' E 131°14'0 0.0
2017-Dec-08 22:27N 33°57' E 131°14'0 0.0
2017-Dec-08 21:45N 33°57' E 131°14'0 0.0
2017-Dec-08 21:27N 33°57' E 131°14'0 0.0
2017-Dec-08 21:00N 33°57' E 131°14'0 0.0
2017-Dec-08 20:21N 33°57' E 131°14'0 0.0
2017-Dec-08 19:51N 33°57' E 131°14'0 0.0
2017-Dec-08 19:15N 33°57' E 131°14'0 0.0
2017-Dec-08 18:54N 33°57' E 131°14'0 0.0
2017-Dec-08 18:27N 33°57' E 131°14'0 0.0
2017-Dec-08 16:39N 33°57' E 131°14'0 0.0
2017-Dec-08 16:21N 33°57' E 131°14'0 0.0
2017-Dec-08 15:51N 33°57' E 131°14'0 0.0
2017-Dec-08 15:21N 33°57' E 131°14'0 0.0
2017-Dec-08 14:57N 33°57' E 131°14'0 0.0
2017-Dec-08 14:27N 33°57' E 131°14'0 0.0
2017-Dec-08 13:51N 33°57' E 131°14'0 0.0
2017-Dec-08 13:15N 33°57' E 131°14'0 0.0
2017-Dec-08 12:57N 33°57' E 131°14'0 0.0
2017-Dec-08 12:27N 33°57' E 131°14'0 0.0
2017-Dec-08 11:57N 33°57' E 131°14'0 0.0
2017-Dec-08 11:21N 33°57' E 131°14'0 0.0
2017-Dec-08 10:51N 33°57' E 131°14'0 0.0
2017-Dec-08 10:27N 33°57' E 131°14'0 0.0
2017-Dec-08 09:54N 33°57' E 131°14'0 0.0
2017-Dec-08 09:09N 33°57' E 131°14'0 0.0
2017-Dec-08 08:57N 33°57' E 131°14'0 0.0
2017-Dec-08 07:57N 33°57' E 131°14'0 0.0
2017-Dec-08 07:27N 33°57' E 131°14'0 0.0
2017-Dec-08 06:57N 33°57' E 131°14'0 0.0
2017-Dec-08 06:21N 33°57' E 131°14'0 0.0
2017-Dec-08 05:57N 33°57' E 131°14'0 0.0
2017-Dec-08 05:27N 33°57' E 131°14'0 0.0
2017-Dec-08 04:51N 33°57' E 131°14'0 0.0
2017-Dec-08 04:27N 33°57' E 131°14'0 0.0
2017-Dec-08 03:57N 33°57' E 131°14'0 0.0
2017-Dec-08 03:27N 33°57' E 131°14'0 0.0
2017-Dec-08 02:51N 33°57' E 131°14'0 0.0
2017-Dec-08 02:27N 33°57' E 131°14'0 0.0
2017-Dec-08 01:57N 33°57' E 131°14'0 0.0
2017-Dec-08 01:15N 33°57' E 131°14'0 0.0
2017-Dec-08 00:57N 33°57' E 131°14'1 2.5
2017-Dec-08 00:30N 33°56' E 131°14'1 1.0
2017-Dec-08 00:00N 33°56' E 131°13'0 0.0
2017-Dec-07 23:31N 33°56' E 131°13'0 0.1
2017-Dec-07 23:01N 33°56' E 131°13'1 1.6
2017-Dec-07 22:30N 33°56' E 131°14'1 1.7
2017-Dec-07 22:00N 33°57' E 131°14'0 0.0
2017-Dec-07 21:12N 33°57' E 131°14'0 0.0
2017-Dec-07 20:57N 33°57' E 131°14'0 0.0
2017-Dec-07 20:27N 33°57' E 131°14'0 0.0
2017-Dec-07 19:57N 33°57' E 131°14'0 0.0
2017-Dec-07 19:27N 33°57' E 131°14'0 0.0
2017-Dec-07 19:00N 33°57' E 131°14'0 0.0
2017-Dec-07 18:30N 33°57' E 131°14'0 0.0
2017-Dec-07 17:54N 33°57' E 131°14'0 0.0
2017-Dec-07 17:27N 33°57' E 131°14'0 0.0
2017-Dec-07 16:51N 33°57' E 131°14'0 0.0
2017-Dec-07 16:27N 33°57' E 131°14'0 0.0
2017-Dec-07 15:57N 33°57' E 131°14'0 0.0
2017-Dec-07 15:09N 33°57' E 131°14'0 0.0
2017-Dec-07 14:57N 33°57' E 131°14'0 0.0
2017-Dec-07 14:27N 33°57' E 131°14'0 0.0
2017-Dec-07 13:57N 33°57' E 131°14'0 0.0
2017-Dec-07 13:27N 33°57' E 131°14'0 0.0
2017-Dec-07 12:57N 33°57' E 131°14'0 0.0
2017-Dec-07 12:15N 33°57' E 131°14'0 0.0
2017-Dec-07 11:57N 33°57' E 131°14'0 0.0
2017-Dec-07 11:27N 33°57' E 131°14'0 0.0
2017-Dec-07 10:57N 33°57' E 131°14'0 0.0
2017-Dec-07 10:27N 33°57' E 131°14'0 0.0
2017-Dec-07 09:57N 33°57' E 131°14'0 0.0
2017-Dec-07 09:27N 33°57' E 131°14'0 0.0
2017-Dec-07 08:57N 33°57' E 131°14'0 0.0
2017-Dec-07 08:27N 33°57' E 131°14'0 0.0
2017-Dec-07 07:51N 33°57' E 131°14'0 0.0
2017-Dec-07 07:21N 33°57' E 131°14'0 0.0
2017-Dec-07 06:57N 33°57' E 131°14'0 0.0
2017-Dec-07 06:27N 33°57' E 131°14'0 0.0
2017-Dec-07 05:57N 33°57' E 131°14'0 0.0
2017-Dec-07 05:27N 33°57' E 131°14'0 0.0
2017-Dec-07 04:42N 33°57' E 131°14'0 0.0
2017-Dec-07 04:15N 33°57' E 131°14'0 0.0
2017-Dec-07 03:48N 33°57' E 131°14'0 0.0
2017-Dec-07 03:27N 33°57' E 131°14'0 0.0
2017-Dec-07 02:57N 33°57' E 131°14'0 0.0
2017-Dec-07 02:27N 33°57' E 131°14'0 0.0
2017-Dec-07 02:00N 33°57' E 131°14'0 0.0
2017-Dec-07 01:21N 33°57' E 131°14'0 0.0
2017-Dec-07 00:45N 33°57' E 131°14'0 0.0
2017-Dec-07 00:27N 33°57' E 131°14'0 0.0
2017-Dec-06 23:57N 33°57' E 131°14'0 0.0
2017-Dec-06 23:27N 33°57' E 131°14'0 0.0
2017-Dec-06 23:00N 33°57' E 131°14'2 3.8
2017-Dec-06 22:29N 33°56' E 131°13'0 0.0
2017-Dec-06 21:57N 33°56' E 131°13'0 0.0
2017-Dec-06 21:30N 33°56' E 131°13'0 0.0
2017-Dec-06 21:00N 33°56' E 131°13'  
2017-Dec-04 10:24N 33°55' E 131°13'0 0.1
2017-Dec-04 10:00N 33°55' E 131°13'5 9.3
2017-Dec-04 09:30N 33°52' E 131°17'612.3
2017-Dec-04 09:00N 33°51' E 131°24'612.3
2017-Dec-04 08:30N 33°50' E 131°32'611.8
2017-Dec-04 08:00N 33°49' E 131°39'612.1
2017-Dec-04 07:30N 33°48' E 131°46'1312.0
2017-Dec-04 06:27N 33°46' E 132°01'812.5
2017-Dec-04 05:49N 33°50' E 132°09'412.3
2017-Dec-04 05:29N 33°54' E 132°09'511.3
2017-Dec-04 05:00N 33°59' E 132°12'612.8
2017-Dec-04 04:30N 34°04' E 132°16'611.7
2017-Dec-04 04:01N 34°10' E 132°17'4 8.6
2017-Dec-04 03:30N 34°14' E 132°14'0 0.1
2017-Dec-04 03:00N 34°14' E 132°14'0 0.0
2017-Dec-04 02:30N 34°14' E 132°14'0 0.0
2017-Dec-04 02:00N 34°14' E 132°14'0 0.0
2017-Dec-04 01:30N 34°14' E 132°14'0 0.0
2017-Dec-04 01:00N 34°14' E 132°14'0 0.0
2017-Dec-04 00:30N 34°14' E 132°14'0 0.0
2017-Dec-04 00:00N 34°14' E 132°14'1 0.7
2017-Dec-03 23:13N 34°14' E 132°14'0 0.0
2017-Dec-03 22:55N 34°14' E 132°14'0 0.0
2017-Dec-03 22:22N 34°14' E 132°14'0 0.0
2017-Dec-03 21:55N 34°14' E 132°14'0 0.0
2017-Dec-03 21:28N 34°14' E 132°14'0 0.0
2017-Dec-03 20:58N 34°14' E 132°14'0 0.0
2017-Dec-03 20:25N 34°14' E 132°14'0 0.0
2017-Dec-03 19:55N 34°14' E 132°14'0 0.0
2017-Dec-03 19:28N 34°14' E 132°14'0 0.0
2017-Dec-03 18:55N 34°14' E 132°14'0 0.0
2017-Dec-03 18:28N 34°14' E 132°14'0 0.0
2017-Dec-03 17:58N 34°14' E 132°14'0 0.0
2017-Dec-03 17:28N 34°14' E 132°14'0 0.0
2017-Dec-03 16:58N 34°14' E 132°14'0 0.0
2017-Dec-03 16:31N 34°14' E 132°14'0 0.0
2017-Dec-03 15:58N 34°14' E 132°14'0 0.0
2017-Dec-03 15:28N 34°14' E 132°14'0 0.0
2017-Dec-03 14:55N 34°14' E 132°14'0 0.0
2017-Dec-03 14:28N 34°14' E 132°14'0 0.0
2017-Dec-03 13:55N 34°14' E 132°14'0 0.0
2017-Dec-03 13:28N 34°14' E 132°14'0 0.0
2017-Dec-03 12:58N 34°14' E 132°14'0 0.0
2017-Dec-03 12:28N 34°14' E 132°14'0 0.0
2017-Dec-03 12:01N 34°14' E 132°14'0 0.0
2017-Dec-03 11:25N 34°14' E 132°14'0 0.0
2017-Dec-03 11:01N 34°14' E 132°14'2 3.0
2017-Dec-03 10:30N 34°13' E 132°16'611.5
2017-Dec-03 10:00N 34°08' E 132°18'611.8
2017-Dec-03 09:30N 34°02' E 132°15'612.1
2017-Dec-03 09:00N 33°57' E 132°10'811.1
2017-Dec-03 08:19N 33°50' E 132°09'412.0
2017-Dec-03 07:59N 33°47' E 132°06'1010.9
2017-Dec-03 07:04N 33°46' E 131°54'111.8
2017-Dec-03 07:00N 33°46' E 131°53'611.4
2017-Dec-03 06:30N 33°47' E 131°46'611.9
2017-Dec-03 06:00N 33°48' E 131°39'612.0
2017-Dec-03 05:30N 33°49' E 131°32'612.0
2017-Dec-03 05:00N 33°51' E 131°25'612.2
2017-Dec-03 04:30N 33°52' E 131°18'5 9.9
2017-Dec-03 04:00N 33°55' E 131°13'2 3.5
2017-Dec-03 03:25N 33°57' E 131°14'0 0.0
2017-Dec-03 02:55N 33°57' E 131°14'0 0.0
2017-Dec-03 02:25N 33°57' E 131°14'0 0.0
2017-Dec-03 01:55N 33°57' E 131°14'0 0.0
2017-Dec-03 01:25N 33°57' E 131°14'0 0.0
2017-Dec-03 00:49N 33°57' E 131°14'0 0.0
2017-Dec-03 00:25N 33°57' E 131°14'0 0.0
2017-Dec-02 23:55N 33°57' E 131°14'0 0.0
2017-Dec-02 23:22N 33°57' E 131°14'0 0.0
2017-Dec-02 22:55N 33°57' E 131°14'0 0.0
2017-Dec-02 22:28N 33°57' E 131°14'0 0.0
2017-Dec-02 21:58N 33°57' E 131°14'0 0.0
2017-Dec-02 21:28N 33°57' E 131°14'0 0.0
2017-Dec-02 20:58N 33°57' E 131°14'0 0.0
2017-Dec-02 20:28N 33°57' E 131°14'0 0.0
2017-Dec-02 19:58N 33°57' E 131°14'0 0.0
2017-Dec-02 19:22N 33°57' E 131°14'0 0.0
2017-Dec-02 18:58N 33°57' E 131°14'0 0.0
2017-Dec-02 18:22N 33°57' E 131°14'0 0.0
2017-Dec-02 17:58N 33°57' E 131°14'0 0.0
2017-Dec-02 17:28N 33°57' E 131°14'0 0.0
2017-Dec-02 16:58N 33°57' E 131°14'0 0.0
2017-Dec-02 16:28N 33°57' E 131°14'0 0.0
2017-Dec-02 15:58N 33°57' E 131°14'0 0.0
2017-Dec-02 15:28N 33°57' E 131°14'0 0.0
2017-Dec-02 14:58N 33°57' E 131°14'0 0.0
2017-Dec-02 14:28N 33°57' E 131°14'0 0.0
2017-Dec-02 13:58N 33°57' E 131°14'0 0.0
2017-Dec-02 13:28N 33°57' E 131°14'0 0.0
2017-Dec-02 12:58N 33°57' E 131°14'0 0.0
2017-Dec-02 12:22N 33°57' E 131°14'0 0.0
2017-Dec-02 11:52N 33°57' E 131°14'0 0.0
2017-Dec-02 11:28N 33°57' E 131°14'0 0.0
2017-Dec-02 10:58N 33°57' E 131°14'0 0.0
2017-Dec-02 10:22N 33°57' E 131°14'0 0.0
2017-Dec-02 09:58N 33°57' E 131°14'0 0.0
2017-Dec-02 09:28N 33°57' E 131°14'0 0.0
2017-Dec-02 08:58N 33°57' E 131°14'0 0.0
2017-Dec-02 08:28N 33°57' E 131°14'0 0.0
2017-Dec-02 07:58N 33°57' E 131°14'0 0.0
2017-Dec-02 07:28N 33°57' E 131°14'0 0.0
2017-Dec-02 06:58N 33°57' E 131°14'0 0.0
2017-Dec-02 06:22N 33°57' E 131°14'0 0.0
2017-Dec-02 05:58N 33°57' E 131°14'0 0.0
2017-Dec-02 05:28N 33°57' E 131°14'0 0.0
2017-Dec-02 04:58N 33°57' E 131°14'0 0.0
2017-Dec-02 04:28N 33°57' E 131°14'0 0.0
2017-Dec-02 03:58N 33°57' E 131°14'0 0.0
2017-Dec-02 03:28N 33°57' E 131°14'0 0.0
2017-Dec-02 03:00N 33°57' E 131°14'4 7.6
2017-Dec-02 02:30N 33°53' E 131°14'0 0.7
2017-Dec-02 02:00N 33°53' E 131°14'0 0.0
2017-Dec-02 01:30N 33°53' E 131°14'0 0.0
2017-Dec-02 01:00N 33°53' E 131°14'0 0.1
2017-Dec-02 00:30N 33°53' E 131°14'0 0.1
2017-Dec-02 00:00N 33°53' E 131°14'0 0.1
2017-Dec-01 23:30N 33°53' E 131°14'0 0.0
2017-Dec-01 23:00N 33°53' E 131°14'0 0.0
2017-Dec-01 22:30N 33°53' E 131°14'0 0.0
2017-Dec-01 22:00N 33°53' E 131°14'0 0.0
2017-Dec-01 21:30N 33°53' E 131°14'0 0.0
2017-Dec-01 21:00N 33°53' E 131°14'0 0.1
2017-Dec-01 20:30N 33°53' E 131°14'0 0.1
2017-Dec-01 20:00N 33°53' E 131°14'0 0.0
2017-Dec-01 19:30N 33°53' E 131°14'0 0.0
2017-Dec-01 19:00N 33°53' E 131°14'0 0.0
2017-Dec-01 18:30N 33°53' E 131°14'0 0.0
2017-Dec-01 18:00N 33°53' E 131°14'0 0.1
2017-Dec-01 17:27N 33°53' E 131°14'0 0.0
2017-Dec-01 17:00N 33°53' E 131°14'  
Track history (hours):
 
Tides and Currents Weather Stations Pressure Air Temp Water Temp Dewpoint Dewpoint Depression Visibility Wind Speed Wind Dir Waves Ship Positions

Kyokaimaru No.75

Last reported at 2017-Dec-11 16:58 UTC. Time now 2017-Dec-13 05:11 UTC.
Position N 33°57' E 131°14'.

Length 68 m; draft 4.5 m.

Type: Tanker. MMSI: 431400692.

Date/timePositionNaut miles runAvg speedWind from/ knotsBaromVisibWave heightAir tempDewpointWater temp
2017-Dec-11 16:58N 33°57' E 131°14'0 0.0
2017-Dec-11 16:28N 33°57' E 131°14'0 0.0
2017-Dec-11 14:46N 33°57' E 131°14'0 0.0
2017-Dec-11 14:28N 33°57' E 131°14'0 0.0
2017-Dec-11 13:40N 33°57' E 131°14'0 0.0
2017-Dec-11 10:22N 33°57' E 131°14'0 0.0
2017-Dec-11 09:58N 33°57' E 131°14'0 0.0
2017-Dec-11 09:28N 33°57' E 131°14'0 0.0
2017-Dec-11 08:52N 33°57' E 131°14'0 0.0
2017-Dec-11 08:28N 33°57' E 131°14'0 0.0
2017-Dec-11 07:58N 33°57' E 131°14'0 0.0
2017-Dec-11 07:28N 33°57' E 131°14'0 0.0
2017-Dec-11 06:58N 33°57' E 131°14'0 0.0
2017-Dec-11 06:28N 33°57' E 131°14'0 0.0
2017-Dec-11 05:58N 33°57' E 131°14'0 0.0
2017-Dec-11 05:22N 33°57' E 131°14'0 0.0
2017-Dec-11 04:58N 33°57' E 131°14'0 0.0
2017-Dec-11 04:28N 33°57' E 131°14'0 0.0
2017-Dec-11 03:58N 33°57' E 131°14'0 0.0
2017-Dec-11 03:30N 33°57' E 131°14'0 0.0
2017-Dec-11 02:57N 33°57' E 131°14'0 0.0
2017-Dec-11 02:30N 33°57' E 131°14'0 0.0
2017-Dec-11 01:42N 33°57' E 131°14'0 0.0
2017-Dec-11 01:24N 33°57' E 131°14'0 0.0
2017-Dec-11 01:00N 33°57' E 131°14'0 0.0
2017-Dec-11 00:30N 33°57' E 131°14'0 0.0
2017-Dec-11 00:00N 33°57' E 131°14'0 0.0
2017-Dec-10 23:30N 33°57' E 131°14'0 0.0
2017-Dec-10 23:00N 33°57' E 131°14'1 2.5
2017-Dec-10 22:30N 33°56' E 131°14'1 2.0
2017-Dec-10 22:00N 33°55' E 131°13'0 0.1
2017-Dec-10 21:28N 33°55' E 131°13'0 0.1
2017-Dec-10 20:58N 33°55' E 131°13'0 0.1
2017-Dec-10 20:28N 33°55' E 131°13'0 0.0
2017-Dec-10 19:58N 33°55' E 131°13'0 0.0
2017-Dec-10 19:28N 33°55' E 131°13'0 0.1
2017-Dec-10 18:58N 33°55' E 131°13'0 0.0
2017-Dec-10 18:28N 33°55' E 131°13'0 0.1
2017-Dec-10 17:58N 33°55' E 131°13'0 0.0
2017-Dec-10 17:28N 33°55' E 131°13'0 0.0
2017-Dec-10 16:55N 33°55' E 131°13'0 0.0
2017-Dec-10 16:28N 33°55' E 131°13'0 0.0
2017-Dec-10 15:58N 33°55' E 131°13'0 0.0
2017-Dec-10 15:28N 33°55' E 131°13'0 0.0
2017-Dec-10 14:58N 33°55' E 131°13'0 0.0
2017-Dec-10 14:28N 33°55' E 131°13'0 0.0
2017-Dec-10 13:55N 33°55' E 131°13'0 0.0
2017-Dec-10 13:28N 33°55' E 131°13'0 0.0
2017-Dec-10 12:58N 33°55' E 131°13'0 0.0
2017-Dec-10 12:28N 33°55' E 131°13'0 0.0
2017-Dec-10 11:58N 33°55' E 131°13'0 0.0
2017-Dec-10 11:28N 33°55' E 131°13'0 0.0
2017-Dec-10 10:58N 33°55' E 131°13'0 0.0
2017-Dec-10 10:28N 33°55' E 131°13'0 0.0
2017-Dec-10 09:58N 33°55' E 131°13'0 0.0
2017-Dec-10 09:30N 33°55' E 131°13'2 4.8
2017-Dec-10 09:00N 33°53' E 131°14'510.2
2017-Dec-10 08:31N 33°54' E 131°20'611.6
2017-Dec-10 07:59N 33°56' E 131°27'611.8
2017-Dec-10 07:30N 33°58' E 131°33'611.9
2017-Dec-10 06:58N 34°01' E 131°40'510.3
2017-Dec-10 06:29N 34°03' E 131°46'1 1.1
2017-Dec-10 06:00N 34°03' E 131°46'0 0.0
2017-Dec-10 05:30N 34°03' E 131°46'0 0.0
2017-Dec-10 05:00N 34°03' E 131°46'0 0.0
2017-Dec-10 04:29N 34°03' E 131°46'0 0.0
2017-Dec-10 03:58N 34°03' E 131°46'0 0.0
2017-Dec-10 03:11N 34°03' E 131°46'0 0.0
2017-Dec-10 02:52N 34°03' E 131°46'0 0.1
2017-Dec-10 02:30N 34°03' E 131°46'1 0.4
2017-Dec-10 00:08N 34°03' E 131°45'0 2.5
2017-Dec-09 23:59N 34°03' E 131°45'4 7.0
2017-Dec-09 23:27N 34°02' E 131°40'0 0.0
2017-Dec-09 22:57N 34°02' E 131°40'0 0.0
2017-Dec-09 22:27N 34°02' E 131°40'0 0.0
2017-Dec-09 22:00N 34°02' E 131°40'0 0.0
2017-Dec-09 21:27N 34°02' E 131°40'0 0.0
2017-Dec-09 20:57N 34°02' E 131°40'0 0.1
2017-Dec-09 20:30N 34°02' E 131°41'0 0.1
2017-Dec-09 20:00N 34°02' E 131°40'0 0.0
2017-Dec-09 19:24N 34°02' E 131°40'0 0.0
2017-Dec-09 18:57N 34°02' E 131°40'0 0.0
2017-Dec-09 18:30N 34°02' E 131°40'0 0.0
2017-Dec-09 18:00N 34°02' E 131°40'0 0.0
2017-Dec-09 17:30N 34°02' E 131°40'0 0.0
2017-Dec-09 16:57N 34°02' E 131°40'0 0.0
2017-Dec-09 16:27N 34°02' E 131°40'0 0.0
2017-Dec-09 16:00N 34°02' E 131°40'0 0.0
2017-Dec-09 15:30N 34°02' E 131°40'0 0.0
2017-Dec-09 14:48N 34°02' E 131°40'0 0.0
2017-Dec-09 14:30N 34°02' E 131°40'0 0.0
2017-Dec-09 14:00N 34°02' E 131°40'0 0.0
2017-Dec-09 13:24N 34°02' E 131°40'0 0.0
2017-Dec-09 12:57N 34°02' E 131°40'0 0.0
2017-Dec-09 12:27N 34°02' E 131°40'0 0.0
2017-Dec-09 12:00N 34°02' E 131°40'0 0.0
2017-Dec-09 11:27N 34°02' E 131°40'0 0.1
2017-Dec-09 11:00N 34°02' E 131°41'0 0.0
2017-Dec-09 10:30N 34°02' E 131°41'0 0.0
2017-Dec-09 09:57N 34°02' E 131°41'0 0.0
2017-Dec-09 09:30N 34°02' E 131°41'0 0.0
2017-Dec-09 08:57N 34°02' E 131°41'0 0.0
2017-Dec-09 08:27N 34°02' E 131°41'0 0.0
2017-Dec-09 07:21N 34°02' E 131°41'0 0.0
2017-Dec-09 06:57N 34°02' E 131°41'0 0.0
2017-Dec-09 06:27N 34°02' E 131°41'0 0.0
2017-Dec-09 06:00N 34°02' E 131°41'0 0.0
2017-Dec-09 05:30N 34°02' E 131°41'0 0.0
2017-Dec-09 04:57N 34°02' E 131°41'0 0.0
2017-Dec-09 04:27N 34°02' E 131°41'0 0.0
2017-Dec-09 03:45N 34°02' E 131°41'0 0.0
2017-Dec-09 03:27N 34°02' E 131°41'0 0.0
2017-Dec-09 02:57N 34°02' E 131°41'0 0.0
2017-Dec-09 02:26N 34°02' E 131°41'4 9.4
2017-Dec-09 02:00N 33°60' E 131°37'510.7
2017-Dec-09 01:30N 33°57' E 131°31'510.8
2017-Dec-09 01:00N 33°55' E 131°25'510.6
2017-Dec-09 00:30N 33°53' E 131°19'5 9.1
2017-Dec-09 00:00N 33°54' E 131°14'3 6.9
2017-Dec-08 23:30N 33°57' E 131°14'0 0.0
2017-Dec-08 22:39N 33°57' E 131°14'0 0.0
2017-Dec-08 22:27N 33°57' E 131°14'0 0.0
2017-Dec-08 21:45N 33°57' E 131°14'0 0.0
2017-Dec-08 21:27N 33°57' E 131°14'0 0.0
2017-Dec-08 21:00N 33°57' E 131°14'0 0.0
2017-Dec-08 20:21N 33°57' E 131°14'0 0.0
2017-Dec-08 19:51N 33°57' E 131°14'0 0.0
2017-Dec-08 19:15N 33°57' E 131°14'0 0.0
2017-Dec-08 18:54N 33°57' E 131°14'0 0.0
2017-Dec-08 18:27N 33°57' E 131°14'0 0.0
2017-Dec-08 16:39N 33°57' E 131°14'0 0.0
2017-Dec-08 16:21N 33°57' E 131°14'0 0.0
2017-Dec-08 15:51N 33°57' E 131°14'0 0.0
2017-Dec-08 15:21N 33°57' E 131°14'0 0.0
2017-Dec-08 14:57N 33°57' E 131°14'0 0.0
2017-Dec-08 14:27N 33°57' E 131°14'0 0.0
2017-Dec-08 13:51N 33°57' E 131°14'0 0.0
2017-Dec-08 13:15N 33°57' E 131°14'0 0.0
2017-Dec-08 12:57N 33°57' E 131°14'0 0.0
2017-Dec-08 12:27N 33°57' E 131°14'0 0.0
2017-Dec-08 11:57N 33°57' E 131°14'0 0.0
2017-Dec-08 11:21N 33°57' E 131°14'0 0.0
2017-Dec-08 10:51N 33°57' E 131°14'0 0.0
2017-Dec-08 10:27N 33°57' E 131°14'0 0.0
2017-Dec-08 09:54N 33°57' E 131°14'0 0.0
2017-Dec-08 09:09N 33°57' E 131°14'0 0.0
2017-Dec-08 08:57N 33°57' E 131°14'0 0.0
2017-Dec-08 07:57N 33°57' E 131°14'0 0.0
2017-Dec-08 07:27N 33°57' E 131°14'0 0.0
2017-Dec-08 06:57N 33°57' E 131°14'0 0.0
2017-Dec-08 06:21N 33°57' E 131°14'0 0.0
2017-Dec-08 05:57N 33°57' E 131°14'0 0.0
2017-Dec-08 05:27N 33°57' E 131°14'0 0.0
2017-Dec-08 04:51N 33°57' E 131°14'0 0.0
2017-Dec-08 04:27N 33°57' E 131°14'0 0.0
2017-Dec-08 03:57N 33°57' E 131°14'0 0.0
2017-Dec-08 03:27N 33°57' E 131°14'0 0.0
2017-Dec-08 02:51N 33°57' E 131°14'0 0.0
2017-Dec-08 02:27N 33°57' E 131°14'0 0.0
2017-Dec-08 01:57N 33°57' E 131°14'0 0.0
2017-Dec-08 01:15N 33°57' E 131°14'0 0.0
2017-Dec-08 00:57N 33°57' E 131°14'1 2.5
2017-Dec-08 00:30N 33°56' E 131°14'1 1.0
2017-Dec-08 00:00N 33°56' E 131°13'0 0.0
2017-Dec-07 23:31N 33°56' E 131°13'0 0.1
2017-Dec-07 23:01N 33°56' E 131°13'1 1.6
2017-Dec-07 22:30N 33°56' E 131°14'1 1.7
2017-Dec-07 22:00N 33°57' E 131°14'0 0.0
2017-Dec-07 21:12N 33°57' E 131°14'0 0.0
2017-Dec-07 20:57N 33°57' E 131°14'0 0.0
2017-Dec-07 20:27N 33°57' E 131°14'0 0.0
2017-Dec-07 19:57N 33°57' E 131°14'0 0.0
2017-Dec-07 19:27N 33°57' E 131°14'0 0.0
2017-Dec-07 19:00N 33°57' E 131°14'0 0.0
2017-Dec-07 18:30N 33°57' E 131°14'0 0.0
2017-Dec-07 17:54N 33°57' E 131°14'0 0.0
2017-Dec-07 17:27N 33°57' E 131°14'0 0.0
2017-Dec-07 16:51N 33°57' E 131°14'0 0.0
2017-Dec-07 16:27N 33°57' E 131°14'0 0.0
2017-Dec-07 15:57N 33°57' E 131°14'0 0.0
2017-Dec-07 15:09N 33°57' E 131°14'0 0.0
2017-Dec-07 14:57N 33°57' E 131°14'0 0.0
2017-Dec-07 14:27N 33°57' E 131°14'0 0.0
2017-Dec-07 13:57N 33°57' E 131°14'0 0.0
2017-Dec-07 13:27N 33°57' E 131°14'0 0.0
2017-Dec-07 12:57N 33°57' E 131°14'0 0.0
2017-Dec-07 12:15N 33°57' E 131°14'0 0.0
2017-Dec-07 11:57N 33°57' E 131°14'0 0.0
2017-Dec-07 11:27N 33°57' E 131°14'0 0.0
2017-Dec-07 10:57N 33°57' E 131°14'0 0.0
2017-Dec-07 10:27N 33°57' E 131°14'0 0.0
2017-Dec-07 09:57N 33°57' E 131°14'0 0.0
2017-Dec-07 09:27N 33°57' E 131°14'0 0.0
2017-Dec-07 08:57N 33°57' E 131°14'0 0.0
2017-Dec-07 08:27N 33°57' E 131°14'0 0.0
2017-Dec-07 07:51N 33°57' E 131°14'0 0.0
2017-Dec-07 07:21N 33°57' E 131°14'0 0.0
2017-Dec-07 06:57N 33°57' E 131°14'0 0.0
2017-Dec-07 06:27N 33°57' E 131°14'0 0.0
2017-Dec-07 05:57N 33°57' E 131°14'0 0.0
2017-Dec-07 05:27N 33°57' E 131°14'0 0.0
2017-Dec-07 04:42N 33°57' E 131°14'0 0.0
2017-Dec-07 04:15N 33°57' E 131°14'0 0.0
2017-Dec-07 03:48N 33°57' E 131°14'0 0.0
2017-Dec-07 03:27N 33°57' E 131°14'0 0.0
2017-Dec-07 02:57N 33°57' E 131°14'0 0.0
2017-Dec-07 02:27N 33°57' E 131°14'0 0.0
2017-Dec-07 02:00N 33°57' E 131°14'0 0.0
2017-Dec-07 01:21N 33°57' E 131°14'0 0.0
2017-Dec-07 00:45N 33°57' E 131°14'0 0.0
2017-Dec-07 00:27N 33°57' E 131°14'0 0.0
2017-Dec-06 23:57N 33°57' E 131°14'0 0.0
2017-Dec-06 23:27N 33°57' E 131°14'0 0.0
2017-Dec-06 23:00N 33°57' E 131°14'2 3.8
2017-Dec-06 22:29N 33°56' E 131°13'0 0.0
2017-Dec-06 21:57N 33°56' E 131°13'0 0.0
2017-Dec-06 21:30N 33°56' E 131°13'0 0.0
2017-Dec-06 21:00N 33°56' E 131°13'  
2017-Dec-04 10:24N 33°55' E 131°13'0 0.1
2017-Dec-04 10:00N 33°55' E 131°13'5 9.3
2017-Dec-04 09:30N 33°52' E 131°17'612.3
2017-Dec-04 09:00N 33°51' E 131°24'612.3
2017-Dec-04 08:30N 33°50' E 131°32'611.8
2017-Dec-04 08:00N 33°49' E 131°39'612.1
2017-Dec-04 07:30N 33°48' E 131°46'1312.0
2017-Dec-04 06:27N 33°46' E 132°01'812.5
2017-Dec-04 05:49N 33°50' E 132°09'412.3
2017-Dec-04 05:29N 33°54' E 132°09'511.3
2017-Dec-04 05:00N 33°59' E 132°12'612.8
2017-Dec-04 04:30N 34°04' E 132°16'611.7
2017-Dec-04 04:01N 34°10' E 132°17'4 8.6
2017-Dec-04 03:30N 34°14' E 132°14'0 0.1
2017-Dec-04 03:00N 34°14' E 132°14'0 0.0
2017-Dec-04 02:30N 34°14' E 132°14'0 0.0
2017-Dec-04 02:00N 34°14' E 132°14'0 0.0
2017-Dec-04 01:30N 34°14' E 132°14'0 0.0
2017-Dec-04 01:00N 34°14' E 132°14'0 0.0
2017-Dec-04 00:30N 34°14' E 132°14'0 0.0
2017-Dec-04 00:00N 34°14' E 132°14'1 0.7
2017-Dec-03 23:13N 34°14' E 132°14'0 0.0
2017-Dec-03 22:55N 34°14' E 132°14'0 0.0
2017-Dec-03 22:22N 34°14' E 132°14'0 0.0
2017-Dec-03 21:55N 34°14' E 132°14'0 0.0
2017-Dec-03 21:28N 34°14' E 132°14'0 0.0
2017-Dec-03 20:58N 34°14' E 132°14'0 0.0
2017-Dec-03 20:25N 34°14' E 132°14'0 0.0
2017-Dec-03 19:55N 34°14' E 132°14'0 0.0
2017-Dec-03 19:28N 34°14' E 132°14'0 0.0
2017-Dec-03 18:55N 34°14' E 132°14'0 0.0
2017-Dec-03 18:28N 34°14' E 132°14'0 0.0
2017-Dec-03 17:58N 34°14' E 132°14'0 0.0
2017-Dec-03 17:28N 34°14' E 132°14'0 0.0
2017-Dec-03 16:58N 34°14' E 132°14'0 0.0
2017-Dec-03 16:31N 34°14' E 132°14'0 0.0
2017-Dec-03 15:58N 34°14' E 132°14'0 0.0
2017-Dec-03 15:28N 34°14' E 132°14'0 0.0
2017-Dec-03 14:55N 34°14' E 132°14'0 0.0
2017-Dec-03 14:28N 34°14' E 132°14'0 0.0
2017-Dec-03 13:55N 34°14' E 132°14'0 0.0
2017-Dec-03 13:28N 34°14' E 132°14'0 0.0
2017-Dec-03 12:58N 34°14' E 132°14'0 0.0
2017-Dec-03 12:28N 34°14' E 132°14'0 0.0
2017-Dec-03 12:01N 34°14' E 132°14'0 0.0
2017-Dec-03 11:25N 34°14' E 132°14'0 0.0
2017-Dec-03 11:01N 34°14' E 132°14'2 3.0
2017-Dec-03 10:30N 34°13' E 132°16'611.5
2017-Dec-03 10:00N 34°08' E 132°18'611.8
2017-Dec-03 09:30N 34°02' E 132°15'612.1
2017-Dec-03 09:00N 33°57' E 132°10'811.1
2017-Dec-03 08:19N 33°50' E 132°09'412.0
2017-Dec-03 07:59N 33°47' E 132°06'1010.9
2017-Dec-03 07:04N 33°46' E 131°54'111.8
2017-Dec-03 07:00N 33°46' E 131°53'611.4
2017-Dec-03 06:30N 33°47' E 131°46'611.9
2017-Dec-03 06:00N 33°48' E 131°39'612.0
2017-Dec-03 05:30N 33°49' E 131°32'612.0
2017-Dec-03 05:00N 33°51' E 131°25'612.2
2017-Dec-03 04:30N 33°52' E 131°18'5 9.9
2017-Dec-03 04:00N 33°55' E 131°13'2 3.5
2017-Dec-03 03:25N 33°57' E 131°14'0 0.0
2017-Dec-03 02:55N 33°57' E 131°14'0 0.0
2017-Dec-03 02:25N 33°57' E 131°14'0 0.0
2017-Dec-03 01:55N 33°57' E 131°14'0 0.0
2017-Dec-03 01:25N 33°57' E 131°14'0 0.0
2017-Dec-03 00:49N 33°57' E 131°14'0 0.0
2017-Dec-03 00:25N 33°57' E 131°14'0 0.0
2017-Dec-02 23:55N 33°57' E 131°14'0 0.0
2017-Dec-02 23:22N 33°57' E 131°14'0 0.0
2017-Dec-02 22:55N 33°57' E 131°14'0 0.0
2017-Dec-02 22:28N 33°57' E 131°14'0 0.0
2017-Dec-02 21:58N 33°57' E 131°14'0 0.0
2017-Dec-02 21:28N 33°57' E 131°14'0 0.0
2017-Dec-02 20:58N 33°57' E 131°14'0 0.0
2017-Dec-02 20:28N 33°57' E 131°14'0 0.0
2017-Dec-02 19:58N 33°57' E 131°14'0 0.0
2017-Dec-02 19:22N 33°57' E 131°14'0 0.0
2017-Dec-02 18:58N 33°57' E 131°14'0 0.0
2017-Dec-02 18:22N 33°57' E 131°14'0 0.0
2017-Dec-02 17:58N 33°57' E 131°14'0 0.0
2017-Dec-02 17:28N 33°57' E 131°14'0 0.0
2017-Dec-02 16:58N 33°57' E 131°14'0 0.0
2017-Dec-02 16:28N 33°57' E 131°14'0 0.0
2017-Dec-02 15:58N 33°57' E 131°14'0 0.0
2017-Dec-02 15:28N 33°57' E 131°14'0 0.0
2017-Dec-02 14:58N 33°57' E 131°14'0 0.0
2017-Dec-02 14:28N 33°57' E 131°14'0 0.0
2017-Dec-02 13:58N 33°57' E 131°14'0 0.0
2017-Dec-02 13:28N 33°57' E 131°14'0 0.0
2017-Dec-02 12:58N 33°57' E 131°14'0 0.0
2017-Dec-02 12:22N 33°57' E 131°14'0 0.0
2017-Dec-02 11:52N 33°57' E 131°14'0 0.0
2017-Dec-02 11:28N 33°57' E 131°14'0 0.0
2017-Dec-02 10:58N 33°57' E 131°14'0 0.0
2017-Dec-02 10:22N 33°57' E 131°14'0 0.0
2017-Dec-02 09:58N 33°57' E 131°14'0 0.0
2017-Dec-02 09:28N 33°57' E 131°14'0 0.0
2017-Dec-02 08:58N 33°57' E 131°14'0 0.0
2017-Dec-02 08:28N 33°57' E 131°14'0 0.0
2017-Dec-02 07:58N 33°57' E 131°14'0 0.0
2017-Dec-02 07:28N 33°57' E 131°14'0 0.0
2017-Dec-02 06:58N 33°57' E 131°14'0 0.0
2017-Dec-02 06:22N 33°57' E 131°14'0 0.0
2017-Dec-02 05:58N 33°57' E 131°14'0 0.0
2017-Dec-02 05:28N 33°57' E 131°14'0 0.0
2017-Dec-02 04:58N 33°57' E 131°14'0 0.0
2017-Dec-02 04:28N 33°57' E 131°14'0 0.0
2017-Dec-02 03:58N 33°57' E 131°14'0 0.0
2017-Dec-02 03:28N 33°57' E 131°14'0 0.0
2017-Dec-02 03:00N 33°57' E 131°14'4 7.6
2017-Dec-02 02:30N 33°53' E 131°14'0 0.7
2017-Dec-02 02:00N 33°53' E 131°14'0 0.0
2017-Dec-02 01:30N 33°53' E 131°14'0 0.0
2017-Dec-02 01:00N 33°53' E 131°14'0 0.1
2017-Dec-02 00:30N 33°53' E 131°14'0 0.1
2017-Dec-02 00:00N 33°53' E 131°14'0 0.1
2017-Dec-01 23:30N 33°53' E 131°14'0 0.0
2017-Dec-01 23:00N 33°53' E 131°14'0 0.0
2017-Dec-01 22:30N 33°53' E 131°14'0 0.0
2017-Dec-01 22:00N 33°53' E 131°14'0 0.0
2017-Dec-01 21:30N 33°53' E 131°14'0 0.0
2017-Dec-01 21:00N 33°53' E 131°14'0 0.1
2017-Dec-01 20:30N 33°53' E 131°14'0 0.1
2017-Dec-01 20:00N 33°53' E 131°14'0 0.0
2017-Dec-01 19:30N 33°53' E 131°14'0 0.0
2017-Dec-01 19:00N 33°53' E 131°14'0 0.0
2017-Dec-01 18:30N 33°53' E 131°14'0 0.0
2017-Dec-01 18:00N 33°53' E 131°14'0 0.1
2017-Dec-01 17:27N 33°53' E 131°14'0 0.0
2017-Dec-01 17:00N 33°53' E 131°14'  

Dump ship's entire track history